createdAt,value
2018-09-06T00:00:50.489Z,9.58
2018-09-06T00:15:50.159Z,11.08
2018-09-06T00:30:50.421Z,10.65
2018-09-06T00:45:50.667Z,11.65
2018-09-06T01:00:50.823Z,12.18
2018-09-06T01:15:50.771Z,13.43
2018-09-06T01:30:51.302Z,14.70
2018-09-06T01:45:51.056Z,14.07
2018-09-06T02:00:51.178Z,13.65
2018-09-06T02:15:50.914Z,14.28
2018-09-06T02:30:50.348Z,15.60
2018-09-06T02:45:49.716Z,17.15
2018-09-06T03:00:50.468Z,14.68
2018-09-06T03:15:50.227Z,16.17
2018-09-06T03:30:50.847Z,15.23
2018-09-06T03:45:50.907Z,16.20
2018-09-06T04:00:50.745Z,16.32
2018-09-06T04:15:51.228Z,15.60
2018-09-06T04:30:50.419Z,15.53
2018-09-06T04:45:51.306Z,14.07
2018-09-06T05:00:51.680Z,15.00
2018-09-06T05:15:50.545Z,15.18
2018-09-06T05:30:50.833Z,14.73
2018-09-06T05:45:52.631Z,15.95
2018-09-06T06:00:56.699Z,17.45
2018-09-06T06:15:50.756Z,15.50
2018-09-06T06:30:51.047Z,15.85
2018-09-06T06:45:51.701Z,15.10
2018-09-06T07:00:51.070Z,14.13
2018-09-06T07:15:51.530Z,14.47
2018-09-06T07:30:50.400Z,15.05
2018-09-06T07:45:52.500Z,13.00
2018-09-06T08:00:50.319Z,12.67
2018-09-06T08:15:50.377Z,12.37
2018-09-06T08:30:51.025Z,13.10
2018-09-06T08:45:50.821Z,11.60
2018-09-06T09:00:55.915Z,12.07
2018-09-06T09:15:50.718Z,11.17
2018-09-06T09:30:51.233Z,9.47
2018-09-06T09:45:51.132Z,14.40
2018-09-06T10:00:51.159Z,11.20
2018-09-06T10:15:51.077Z,9.30
2018-09-06T10:30:52.561Z,9.53
2018-09-06T10:45:50.631Z,11.83
2018-09-06T11:00:53.133Z,10.50
2018-09-06T11:15:50.462Z,10.40
2018-09-06T11:30:50.863Z,10.07
2018-09-06T11:45:50.339Z,10.80
2018-09-06T12:00:50.951Z,9.97
2018-09-06T12:15:50.866Z,12.03
2018-09-06T12:30:51.408Z,12.37
2018-09-06T12:45:51.244Z,12.10
2018-09-06T13:30:50.675Z,16.62
2018-09-06T13:45:51.136Z,12.43
2018-09-06T14:00:50.605Z,11.78
2018-09-06T14:15:50.578Z,11.75
2018-09-06T14:30:51.116Z,11.55
2018-09-06T14:45:51.045Z,12.68
2018-09-06T15:00:50.989Z,17.23
2018-09-06T15:15:50.998Z,16.93
2018-09-06T15:30:50.412Z,16.30
2018-09-06T15:45:52.395Z,18.77
2018-09-06T16:00:52.814Z,18.32
2018-09-06T16:15:50.363Z,18.52
2018-09-06T16:30:50.746Z,19.67
2018-09-06T16:45:50.751Z,18.73
2018-09-06T17:00:50.743Z,17.85
2018-09-06T17:15:50.213Z,18.25
2018-09-06T17:30:50.667Z,17.27
2018-09-06T17:45:50.883Z,19.73
2018-09-06T18:15:51.156Z,18.73
2018-09-06T18:30:50.568Z,18.32
2018-09-06T18:45:50.389Z,24.37
2018-09-06T19:00:51.442Z,20.45
2018-09-06T19:15:50.260Z,20.35
2018-09-06T19:30:50.709Z,19.62
2018-09-06T19:45:50.886Z,19.27
2018-09-06T20:00:50.432Z,20.05
2018-09-06T20:15:52.618Z,19.95
2018-09-06T20:30:52.074Z,19.65
2018-09-06T20:45:49.796Z,19.40
2018-09-06T21:00:51.248Z,19.70
2018-09-06T21:15:51.179Z,17.98
2018-09-06T21:30:50.368Z,18.07
2018-09-06T21:45:52.348Z,18.40
2018-09-06T22:00:50.780Z,18.37
2018-09-06T22:15:50.300Z,17.02
2018-09-06T22:30:50.776Z,17.07
2018-09-06T22:45:50.748Z,16.73
2018-09-06T23:00:50.921Z,16.80
2018-09-06T23:15:50.275Z,17.10
2018-09-06T23:45:59.141Z,18.48
